Latest Weather Observations for Canterbury

IDN60801

Issued at 7:19 pm EDT Thursday 18 December 2014 (issued every 30 minutes, with the page automatically refreshed every 10 minutes)

About weather observations | Map of weather stations | Latest weather observations for NSW | Other Formats
Station Details ID: 066194 Name: CANTERBURY RACECOURSE AWS Lat: -33.91 Lon: 151.11 Height: 3.0 m
Data from the previous 72 hours. | See also: Recent months at Canterbury
Date/Time
EDT
Temp
°C
App
Temp
°C
Dew
Point
Rel
Hum
%
Delta-T
°C
Wind Press
QNH
hPa
Press
MSL
hPa
Rain
since 9 am
mm
Dir
 
Spd
km/h
Gust
km/h
Spd
kts
Gust
kts
18/07:00pm 23.8 23.8 18.9 74 3.1 ENE 17 22 9 12 - - 0.0
18/06:30pm 24.3 23.6 18.7 71 3.6 ENE 20 30 11 16 - - 0.0
18/06:00pm 24.8 24.2 18.5 68 4.0 - 19 26 10 14 - - 0.0
18/05:30pm 25.4 25.3 18.8 67 4.2 ENE 17 26 9 14 - - 0.0
18/05:00pm 25.4 25.2 18.6 66 4.3 ENE 17 24 9 13 - - 0.0
18/04:30pm 25.6 24.8 18.0 63 4.8 ENE 19 26 10 14 - - 0.0
18/04:00pm 25.7 24.9 19.3 67 4.1 ENE 22 33 12 18 - - 0.0
18/03:30pm 25.3 24.4 18.2 64 4.5 ENE 20 30 11 16 - - 0.0
18/03:00pm 25.4 24.2 17.6 62 4.9 ENE 20 33 11 18 - - 0.0
18/02:30pm 25.2 24.7 17.9 64 4.6 ENE 17 30 9 16 - - 0.0
18/02:00pm 25.0 24.8 18.4 66 4.2 ENE 17 32 9 17 - - 0.0
18/01:30pm 24.5 23.7 18.0 67 4.1 NE 19 28 10 15 - - 0.0
18/01:00pm 24.0 23.4 17.5 67 4.0 ENE 17 28 9 15 - - 0.0
18/12:30pm 23.7 23.4 17.4 68 3.9 NNE 15 22 8 12 - - 0.0
18/12:00pm 23.4 22.8 16.7 66 4.1 ENE 15 24 8 13 - - 0.0
18/11:30am 23.1 24.2 17.1 69 3.7 E 7 13 4 7 - - 0.0
18/11:00am 22.0 24.1 16.3 70 3.4 CALM 0 0 0 0 - - 0.0
18/10:30am 21.2 22.7 15.7 71 3.3 ENE 2 7 1 4 - - 0.0
18/10:00am 20.5 22.5 15.9 75 2.7 CALM 0 0 0 0 - - 0.0
18/09:30am 19.4 20.1 15.7 79 2.2 NW 6 9 3 5 - - 0.0
18/09:00am 18.8 19.3 14.9 78 2.3 WSW 6 9 3 5 - - 0.0
18/08:30am 18.5 18.8 15.0 80 2.0 WSW 7 13 4 7 - - 0.0
18/08:00am 17.9 17.7 14.6 81 1.9 WSW 9 11 5 6 - - 0.0
18/07:30am 17.7 17.5 14.6 82 1.8 W 9 13 5 7 - - 0.0
18/07:00am 17.5 17.1 14.2 81 1.9 W 9 13 5 7 - - 0.0
18/06:30am 17.6 17.1 13.9 79 2.1 WNW 9 13 5 7 - - 0.0
18/06:00am 17.9 17.8 13.8 77 2.3 - 7 13 4 7 - - 0.0
18/05:30am 17.9 17.7 13.6 76 2.4 W 7 9 4 5 - - 0.0
18/05:00am 18.1 18.0 13.4 74 2.7 SW 6 7 3 4 - - 0.0
18/04:30am 18.3 18.0 13.4 73 2.8 SW 7 9 4 5 - - 0.0
18/04:00am 18.5 18.3 13.1 71 3.0 S 6 9 3 5 - - 0.0
18/03:30am 18.6 19.7 13.5 72 2.9 CALM 0 0 0 0 - - 0.0
18/03:00am 18.7 18.5 13.1 70 3.2 N 6 9 3 5 - - 0.0
18/02:30am 18.8 18.9 12.8 68 3.4 NE 4 7 2 4 - - 0.0
18/02:00am 18.7 19.7 13.1 70 3.2 CALM 0 7 0 4 - - 0.0
18/01:30am 18.9 18.0 12.6 67 3.5 E 9 13 5 7 - - 0.0
18/01:00am 18.9 18.5 12.9 68 3.4 ESE 7 9 4 5 - - 0.0
18/12:30am 18.7 19.1 12.5 67 3.5 ENE 2 7 1 4 - - 0.0
18/12:00am 18.6 18.1 12.6 68 3.4 - 7 9 4 5 - - 0.0
 
Date/Time
EDT
Temp
°C
App
Temp
°C
Dew
Point
Rel
Hum
%
Delta-T
°C
Wind Press
QNH
hPa
Press
MSL
hPa
Rain
since 9 am
mm
Dir
 
Spd
km/h
Gust
km/h
Spd
kts
Gust
kts
17/11:30pm 18.5 18.0 12.7 69 3.2 E 7 11 4 6 - - 0.0
17/11:00pm 18.6 17.4 12.8 69 3.3 ENE 11 17 6 9 - - 0.0
17/10:30pm 19.0 17.7 12.5 66 3.6 ESE 11 17 6 9 - - 0.0
17/10:00pm 19.0 17.7 12.5 66 3.6 ESE 11 17 6 9 - - 0.0
17/09:30pm 19.0 17.5 11.8 63 4.0 ESE 11 17 6 9 - - 0.0
17/09:00pm 19.0 17.0 11.6 62 4.1 E 13 19 7 10 - - 0.0
17/08:30pm 19.0 16.6 11.3 61 4.2 ESE 15 20 8 11 - - 0.0
17/08:00pm 19.0 16.7 11.6 62 4.1 ESE 15 22 8 12 - - 0.0
17/07:30pm 19.1 16.1 11.9 63 4.0 SE 19 24 10 13 - - 0.0
17/07:00pm 19.2 17.0 12.2 64 3.9 SE 15 22 8 12 - - 0.0
17/06:30pm 19.2 16.6 12.0 63 4.0 SE 17 22 9 12 - - 0.0
17/06:00pm 19.3 15.8 12.1 63 4.0 SE 22 30 12 16 - - 0.0
17/05:30pm 19.6 16.7 12.4 63 4.0 SE 19 33 10 18 - - 0.0
17/05:00pm 19.5 16.4 12.3 63 4.0 SE 20 30 11 16 - - 0.0
17/04:30pm 20.0 17.0 12.7 63 4.1 SSE 20 32 11 17 - - 0.0
17/04:00pm 20.1 17.0 12.1 60 4.5 SE 20 30 11 16 - - 0.0
17/03:30pm 20.1 16.6 12.1 60 4.5 SE 22 37 12 20 - - 0.0
17/03:00pm 21.3 18.4 13.0 59 4.7 SSE 20 32 11 17 - - 0.0
17/02:30pm 20.5 16.5 11.7 57 4.9 SE 24 37 13 20 - - 0.0
17/02:00pm 21.4 17.8 13.1 59 4.7 SSE 24 32 13 17 - - 0.0
17/01:30pm 20.8 17.0 12.5 59 4.7 SE 24 33 13 18 - - 0.0
17/01:00pm 20.6 16.6 11.8 57 4.9 SE 24 35 13 19 - - 0.0
17/12:30pm 20.7 16.4 12.1 58 4.8 SE 26 35 14 19 - - 0.0
17/12:00pm 21.0 17.6 12.4 58 4.8 SE 22 35 12 19 - - 0.0
17/11:30am 20.6 16.2 11.8 57 4.9 SE 26 37 14 20 - - 0.0
17/11:00am 20.2 15.2 10.9 55 5.1 SE 28 39 15 21 - - 0.0
17/10:30am 20.5 16.6 12.2 59 4.6 SSE 24 39 13 21 - - 0.0
17/10:00am 20.7 16.0 12.1 58 4.8 SSE 28 43 15 23 - - 0.0
17/09:30am 20.4 16.3 12.6 61 4.4 SSE 26 43 14 23 - - 0.0
17/09:00am 20.3 16.3 13.0 63 4.1 SSE 26 37 14 20 - - 0.0
17/08:30am 20.3 15.7 13.5 65 3.9 SSE 30 50 16 27 - - 0.0
17/08:00am 20.0 15.1 13.7 67 3.6 SSE 32 50 17 27 - - 0.0
17/07:33am 19.6 15.6 14.0 70 3.2 SSE 28 50 15 27 - - 0.0
17/07:30am 19.7 15.7 14.1 70 3.2 SSE 28 43 15 23 - - 0.0
17/07:00am 19.2 15.4 14.7 75 2.6 SSE 28 50 15 27 - - 0.0
17/06:46am 19.0 15.2 14.7 76 2.5 SSE 28 48 15 26 - - 0.0
17/06:30am 18.8 15.8 14.7 77 2.4 SSE 24 39 13 21 - - 0.0
17/06:03am 18.6 14.7 14.5 77 2.4 SSE 28 46 15 25 - - 0.0
17/06:00am 18.7 15.3 14.8 78 2.3 SSE 26 44 14 24 - - 0.0
17/05:34am 18.9 15.2 15.0 78 2.3 SSE 28 54 15 29 - - 0.0
17/05:32am 18.9 15.1 14.8 77 2.4 SSE 28 54 15 29 - - 0.0
17/05:30am 18.8 15.5 14.9 78 2.3 SSE 26 43 14 23 - - 0.0
17/05:04am 19.3 15.7 15.2 77 2.4 SSE 28 50 15 27 - - 0.0
17/05:00am 19.4 17.0 15.3 77 2.4 SSE 22 50 12 27 - - 0.0
17/04:30am 19.6 19.2 17.2 86 1.5 SSE 15 39 8 21 - - 0.0
17/04:00am 18.1 19.1 16.8 92 0.8 WNW 7 9 4 5 - - 0.0
17/03:30am 18.3 19.7 17.3 94 0.6 NW 6 9 3 5 - - 0.0
17/03:00am 17.9 20.3 17.1 95 0.5 CALM 0 0 0 0 - - 0.0
17/02:30am 17.9 19.1 16.9 94 0.6 N 6 7 3 4 - - 0.0
17/02:00am 17.9 20.3 16.9 94 0.6 CALM 0 0 0 0 - - 0.0
17/01:30am 17.9 20.3 17.1 95 0.5 CALM 0 0 0 0 - - 0.0
17/01:00am 17.9 20.3 16.9 94 0.6 CALM 0 0 0 0 - - 0.0
17/12:30am 18.1 20.5 17.1 94 0.6 CALM 0 0 0 0 - - 0.0
17/12:00am 18.0 20.3 16.7 92 0.8 CALM 0 0 0 0 - - 0.0
 
Date/Time
EDT
Temp
°C
App
Temp
°C
Dew
Point
Rel
Hum
%
Delta-T
°C
Wind Press
QNH
hPa
Press
MSL
hPa
Rain
since 9 am
mm
Dir
 
Spd
km/h
Gust
km/h
Spd
kts
Gust
kts
16/11:30pm 18.1 20.4 16.8 92 0.8 CALM 0 0 0 0 - - 0.0
16/11:00pm 18.7 21.2 17.2 91 0.9 CALM 0 0 0 0 - - 0.0
16/10:30pm 19.0 21.4 17.1 89 1.2 CALM 0 0 0 0 - - 0.0
16/10:00pm 19.5 22.1 17.5 88 1.2 CALM 0 0 0 0 - - 0.0
16/09:30pm 20.0 22.6 17.4 85 1.6 CALM 0 0 0 0 - - 0.0
16/09:00pm 20.8 23.2 17.0 79 2.3 CALM 0 6 0 3 - - 0.0
16/08:30pm 22.5 23.1 17.8 75 2.9 E 11 17 6 9 - - 0.0
16/08:00pm 22.9 23.8 17.6 72 3.3 ESE 9 13 5 7 - - 0.0
16/07:30pm 23.8 24.3 17.5 68 3.9 ENE 11 19 6 10 - - 0.0
16/07:00pm 24.6 24.4 17.6 65 4.4 ENE 15 22 8 12 - - 0.0
16/06:30pm 25.0 25.1 17.5 63 4.7 ENE 13 24 7 13 - - 0.0
16/06:00pm 25.0 24.0 17.5 63 4.7 NE 19 32 10 17 - - 0.0
16/05:30pm 25.5 23.1 17.4 61 5.1 NNE 26 43 14 23 - - 0.0
16/05:00pm 25.4 22.2 17.3 61 5.0 NE 30 48 16 26 - - 0.0
16/04:30pm 25.1 21.7 17.6 63 4.7 NNE 32 50 17 27 - - 0.0
16/04:16pm 24.5 20.7 16.7 61 4.8 NNE 32 50 17 27 - - 0.0
16/04:00pm 24.3 21.4 17.1 64 4.5 NNE 28 44 15 24 - - 0.0
16/03:34pm 24.3 21.1 16.3 61 4.9 NE 28 48 15 26 - - 0.0
16/03:30pm 24.6 21.4 16.3 60 5.1 NE 28 43 15 23 - - 0.0
16/03:03pm 24.9 21.2 16.1 58 5.4 NNE 30 50 16 27 - - 0.0
16/03:00pm 25.4 22.4 16.8 59 5.3 NE 28 46 15 25 - - 0.0
16/02:30pm 25.2 22.1 16.6 59 5.3 NE 28 41 15 22 - - 0.0
16/02:00pm 24.4 21.4 16.9 63 4.6 NE 28 50 15 27 - - 0.0
16/01:45pm 24.0 21.0 16.8 64 4.4 NE 28 46 15 25 - - 0.0
16/01:30pm 23.8 20.3 16.6 64 4.4 NE 30 43 16 23 - - 0.0
16/01:00pm 23.7 21.7 16.5 64 4.4 NE 22 35 12 19 - - 0.0
16/12:30pm 23.2 20.6 15.8 63 4.5 NE 24 37 13 20 - - 0.0
16/12:00pm 22.7 20.0 15.5 64 4.3 NNE 24 35 13 19 - - 0.0
16/11:30am 21.8 20.0 15.4 67 3.8 NNE 19 33 10 18 - - 0.0
16/11:00am 21.5 19.6 15.1 67 3.8 ENE 19 30 10 16 - - 0.0
16/10:30am 22.5 21.0 15.4 64 4.2 ENE 17 30 9 16 - - 0.0
16/10:00am 23.1 21.3 15.4 62 4.6 NE 19 32 10 17 - - 0.0
16/09:30am 21.8 21.5 14.4 63 4.3 NE 9 13 5 7 - - 0.0
16/09:00am 21.7 21.0 14.4 63 4.3 NNW 11 17 6 9 - - 0.0
16/08:30am 21.7 20.3 14.4 63 4.3 N 15 24 8 13 - - 0.0
16/08:00am 21.3 19.8 15.2 68 3.6 NNE 17 22 9 12 - - 0.0
16/07:30am 20.4 19.3 14.3 68 3.5 NE 13 20 7 11 - - 0.0
16/07:00am 19.6 20.3 14.6 73 2.9 N 4 9 2 5 - - 0.0
16/06:30am 18.6 19.8 14.9 79 2.2 N 2 6 1 3 - - 0.0
16/06:00am 18.3 18.6 14.4 78 2.2 NNW 6 7 3 4 - - 0.0
16/05:30am 18.7 18.5 14.6 77 2.4 N 9 13 5 7 - - 0.0
16/05:00am 18.6 18.4 14.7 78 2.3 N 9 13 5 7 - - 0.0
16/04:30am 18.8 18.7 14.9 78 2.3 N 9 13 5 7 - - 0.0
16/04:00am 18.5 20.1 15.0 80 2.0 CALM 0 0 0 0 - - 0.0
16/03:41am 18.4 18.9 15.1 81 1.9 NNW 6 7 3 4 - - 0.0
16/03:30am 18.3 19.2 15.2 82 1.8 NNW 4 9 2 5 - - 0.0
16/03:22am 18.2 19.6 15.3 83 1.7 NNW 2 7 1 4 - - 0.0
16/03:00am 18.1 18.4 14.6 80 2.0 NNE 6 7 3 4 - - 0.0
16/02:30am 18.6 19.3 14.5 77 2.4 N 4 9 2 5 - - 0.0
16/02:00am 19.2 19.4 14.7 75 2.6 NE 7 11 4 6 - - 0.0
16/01:30am 19.2 19.0 14.7 75 2.6 NE 9 13 5 7 - - 0.0
16/01:00am 18.3 19.0 13.4 73 2.8 N 2 7 1 4 - - 0.0
16/12:30am 18.9 19.1 12.9 68 3.4 NNE 4 7 2 4 - - 0.0
16/12:00am 19.6 18.8 12.8 65 3.8 NNW 9 13 5 7 - - 0.0
 
Date/Time
EDT
Temp
°C
App
Temp
°C
Dew
Point
Rel
Hum
%
Delta-T
°C
Wind Press
QNH
hPa
Press
MSL
hPa
Rain
since 9 am
mm
Dir
 
Spd
km/h
Gust
km/h
Spd
kts
Gust
kts
15/11:30pm 19.9 19.0 12.7 63 4.1 N 9 13 5 7 - - 0.0
15/11:00pm 20.2 18.6 12.7 62 4.2 NNE 13 22 7 12 - - 0.0
15/10:30pm 20.2 19.0 12.7 62 4.2 NE 11 17 6 9 - - 0.0
15/10:00pm 20.6 19.5 13.1 62 4.3 NNE 11 20 6 11 - - 0.0
15/09:30pm 20.7 19.2 13.2 62 4.3 NE 13 22 7 12 - - 0.0
15/09:00pm 21.0 18.9 13.7 63 4.2 NE 17 24 9 13 - - 0.0
15/08:30pm 21.1 19.1 14.0 64 4.1 NE 17 28 9 15 - - 0.0
15/08:00pm 21.4 19.4 13.8 62 4.4 NE 17 30 9 16 - - 0.0
15/07:30pm 22.0 19.3 13.4 58 5.0 NE 20 32 11 17 - - 0.0

Other Formats:

Comma delimited format used in spreadsheet applications
http://www.bom.gov.au/fwo/IDN60801/IDN60801.94766.axf

JavaScript Object Notation format (JSON) in row-major order
http://www.bom.gov.au/fwo/IDN60801/IDN60801.94766.json